sensor_id;sensor_type;location;lat;lon;timestamp;pressure;altitude;pressure_sealevel;temperature;humidity
49529;BME280;35423;37.320;-121.762;2022-09-21T00:01:09;99549.73;;;37.89;12.82
49529;BME280;35423;37.320;-121.762;2022-09-21T00:03:34;99555.44;;;37.82;13.03
49529;BME280;35423;37.320;-121.762;2022-09-21T00:06:04;99551.79;;;37.91;13.18
49529;BME280;35423;37.320;-121.762;2022-09-21T00:08:25;99550.85;;;37.55;13.29
49529;BME280;35423;37.320;-121.762;2022-09-21T00:10:55;99547.69;;;37.53;13.37
49529;BME280;35423;37.320;-121.762;2022-09-21T00:13:20;99549.50;;;37.64;13.42
49529;BME280;35423;37.320;-121.762;2022-09-21T00:15:46;99555.76;;;37.52;13.48
49529;BME280;35423;37.320;-121.762;2022-09-21T00:18:16;99558.78;;;37.29;13.39
49529;BME280;35423;37.320;-121.762;2022-09-21T00:20:42;99556.19;;;37.68;13.33
49529;BME280;35423;37.320;-121.762;2022-09-21T00:23:07;99556.71;;;36.70;13.54
49529;BME280;35423;37.320;-121.762;2022-09-21T00:25:34;99555.25;;;37.51;13.51
49529;BME280;35423;37.320;-121.762;2022-09-21T00:28:06;99557.40;;;37.19;13.62
49529;BME280;35423;37.320;-121.762;2022-09-21T00:30:31;99556.65;;;36.90;13.77
49529;BME280;35423;37.320;-121.762;2022-09-21T00:32:58;99557.27;;;37.01;13.70
49529;BME280;35423;37.320;-121.762;2022-09-21T00:35:28;99556.65;;;36.53;13.74
49529;BME280;35423;37.320;-121.762;2022-09-21T00:38:02;99556.92;;;36.84;13.80
49529;BME280;35423;37.320;-121.762;2022-09-21T00:40:26;99557.73;;;36.19;14.01
49529;BME280;35423;37.320;-121.762;2022-09-21T00:42:51;99555.01;;;36.03;14.10
49529;BME280;35423;37.320;-121.762;2022-09-21T00:45:17;99552.90;;;35.94;14.21
49529;BME280;35423;37.320;-121.762;2022-09-21T00:47:44;99551.90;;;35.96;14.24
49529;BME280;35423;37.320;-121.762;2022-09-21T00:50:22;99551.21;;;35.81;14.37
49529;BME280;35423;37.320;-121.762;2022-09-21T00:52:39;99549.96;;;35.79;14.32
49529;BME280;35423;37.320;-121.762;2022-09-21T00:55:07;99549.90;;;35.41;14.50
49529;BME280;35423;37.320;-121.762;2022-09-21T00:57:34;99551.84;;;35.07;14.56
49529;BME280;35423;37.320;-121.762;2022-09-21T01:00:03;99551.52;;;35.08;14.78
49529;BME280;35423;37.320;-121.762;2022-09-21T01:02:25;99551.60;;;34.88;14.85
49529;BME280;35423;37.320;-121.762;2022-09-21T01:04:52;99554.75;;;34.73;14.99
49529;BME280;35423;37.320;-121.762;2022-09-21T01:07:19;99556.40;;;34.06;14.99
49529;BME280;35423;37.320;-121.762;2022-09-21T01:09:46;99554.91;;;34.19;15.18
49529;BME280;35423;37.320;-121.762;2022-09-21T01:12:22;99554.22;;;33.55;15.17
49529;BME280;35423;37.320;-121.762;2022-09-21T01:14:50;99557.60;;;34.11;15.11
49529;BME280;35423;37.320;-121.762;2022-09-21T01:17:11;99555.40;;;33.81;15.22
49529;BME280;35423;37.320;-121.762;2022-09-21T01:19:54;99550.92;;;32.95;15.55
49529;BME280;35423;37.320;-121.762;2022-09-21T01:22:12;99552.12;;;32.70;15.46
49529;BME280;35423;37.320;-121.762;2022-09-21T01:24:47;99557.27;;;32.82;15.61
49529;BME280;35423;37.320;-121.762;2022-09-21T01:29:28;99568.08;;;32.79;15.68
49529;BME280;35423;37.320;-121.762;2022-09-21T01:32:00;99570.86;;;32.72;15.68
49529;BME280;35423;37.320;-121.762;2022-09-21T01:34:24;99572.01;;;32.12;15.74
49529;BME280;35423;37.320;-121.762;2022-09-21T01:36:47;99570.26;;;32.74;15.82
49529;BME280;35423;37.320;-121.762;2022-09-21T01:39:12;99576.30;;;31.95;16.07
49529;BME280;35423;37.320;-121.762;2022-09-21T01:41:39;99576.91;;;32.53;16.07
49529;BME280;35423;37.320;-121.762;2022-09-21T01:44:06;99579.33;;;31.98;16.39
49529;BME280;35423;37.320;-121.762;2022-09-21T01:46:32;99575.27;;;32.00;16.51
49529;BME280;35423;37.320;-121.762;2022-09-21T01:49:08;99577.11;;;31.90;16.69
49529;BME280;35423;37.320;-121.762;2022-09-21T01:51:26;99574.45;;;31.43;16.91
49529;BME280;35423;37.320;-121.762;2022-09-21T01:53:54;99574.43;;;31.34;17.17
49529;BME280;35423;37.320;-121.762;2022-09-21T01:56:23;99577.64;;;30.90;17.33
49529;BME280;35423;37.320;-121.762;2022-09-21T01:58:49;99578.21;;;31.07;17.44
49529;BME280;35423;37.320;-121.762;2022-09-21T02:01:15;99577.97;;;30.39;17.56
49529;BME280;35423;37.320;-121.762;2022-09-21T02:03:40;99582.31;;;30.73;17.65
49529;BME280;35423;37.320;-121.762;2022-09-21T02:06:08;99586.62;;;30.09;17.82
49529;BME280;35423;37.320;-121.762;2022-09-21T02:08:36;99589.14;;;30.79;17.84
49529;BME280;35423;37.320;-121.762;2022-09-21T02:11:03;99590.16;;;30.74;18.02
49529;BME280;35423;37.320;-121.762;2022-09-21T02:13:31;99591.74;;;30.33;18.18
49529;BME280;35423;37.320;-121.762;2022-09-21T02:16:09;99593.60;;;30.51;18.27
49529;BME280;35423;37.320;-121.762;2022-09-21T02:18:37;99593.37;;;30.07;18.33
49529;BME280;35423;37.320;-121.762;2022-09-21T02:21:02;99592.37;;;30.18;18.39
49529;BME280;35423;37.320;-121.762;2022-09-21T02:23:40;99595.78;;;30.33;18.20
49529;BME280;35423;37.320;-121.762;2022-09-21T02:26:04;99601.86;;;29.98;18.27
49529;BME280;35423;37.320;-121.762;2022-09-21T02:28:34;99601.20;;;30.01;18.35
49529;BME280;35423;37.320;-121.762;2022-09-21T02:31:00;99605.10;;;29.85;18.40
49529;BME280;35423;37.320;-121.762;2022-09-21T02:33:23;99607.45;;;29.46;18.49
49529;BME280;35423;37.320;-121.762;2022-09-21T02:35:51;99605.82;;;29.86;18.38
49529;BME280;35423;37.320;-121.762;2022-09-21T02:38:19;99601.98;;;28.93;18.48
49529;BME280;35423;37.320;-121.762;2022-09-21T02:40:42;99603.71;;;29.43;18.43
49529;BME280;35423;37.320;-121.762;2022-09-21T02:43:11;99601.27;;;29.09;18.36
49529;BME280;35423;37.320;-121.762;2022-09-21T02:45:36;99606.67;;;29.13;18.46
49529;BME280;35423;37.320;-121.762;2022-09-21T02:48:03;99609.95;;;29.35;18.48
49529;BME280;35423;37.320;-121.762;2022-09-21T02:50:35;99608.74;;;28.91;18.59
49529;BME280;35423;37.320;-121.762;2022-09-21T02:52:57;99611.78;;;29.32;18.67
49529;BME280;35423;37.320;-121.762;2022-09-21T02:55:21;99611.98;;;28.65;18.81
49529;BME280;35423;37.320;-121.762;2022-09-21T02:57:47;99611.14;;;28.88;18.91
49529;BME280;35423;37.320;-121.762;2022-09-21T03:00:14;99616.27;;;28.28;19.04
49529;BME280;35423;37.320;-121.762;2022-09-21T03:02:39;99616.13;;;28.81;19.24
49529;BME280;35423;37.320;-121.762;2022-09-21T03:05:10;99621.56;;;28.13;19.50
49529;BME280;35423;37.320;-121.762;2022-09-21T03:07:35;99622.14;;;28.29;19.73
49529;BME280;35423;37.320;-121.762;2022-09-21T03:10:03;99624.32;;;28.24;19.80
49529;BME280;35423;37.320;-121.762;2022-09-21T03:12:35;99628.33;;;28.64;20.02
49529;BME280;35423;37.320;-121.762;2022-09-21T03:15:06;99634.18;;;27.96;20.24
49529;BME280;35423;37.320;-121.762;2022-09-21T03:17:32;99637.33;;;28.00;20.41
49529;BME280;35423;37.320;-121.762;2022-09-21T03:19:59;99634.85;;;28.07;20.58
49529;BME280;35423;37.320;-121.762;2022-09-21T03:22:31;99638.10;;;28.06;20.79
49529;BME280;35423;37.320;-121.762;2022-09-21T03:25:00;99638.21;;;27.98;20.93
49529;BME280;35423;37.320;-121.762;2022-09-21T03:27:26;99643.96;;;27.94;21.03
49529;BME280;35423;37.320;-121.762;2022-09-21T03:29:55;99649.12;;;27.96;21.09
49529;BME280;35423;37.320;-121.762;2022-09-21T03:32:20;99655.01;;;27.84;21.09
49529;BME280;35423;37.320;-121.762;2022-09-21T03:34:46;99657.95;;;27.85;21.02
49529;BME280;35423;37.320;-121.762;2022-09-21T03:37:15;99661.37;;;26.85;21.15
49529;BME280;35423;37.320;-121.762;2022-09-21T03:39:41;99661.04;;;27.76;21.18
49529;BME280;35423;37.320;-121.762;2022-09-21T03:42:07;99665.06;;;27.29;21.20
49529;BME280;35423;37.320;-121.762;2022-09-21T03:44:37;99672.13;;;27.64;21.27
49529;BME280;35423;37.320;-121.762;2022-09-21T03:47:03;99673.82;;;27.88;21.11
49529;BME280;35423;37.320;-121.762;2022-09-21T03:49:30;99673.99;;;27.61;20.92
49529;BME280;35423;37.320;-121.762;2022-09-21T03:51:55;99673.79;;;27.43;20.96
49529;BME280;35423;37.320;-121.762;2022-09-21T03:54:23;99676.64;;;27.30;21.12
49529;BME280;35423;37.320;-121.762;2022-09-21T03:56:57;99683.29;;;27.45;21.34
49529;BME280;35423;37.320;-121.762;2022-09-21T03:59:26;99684.90;;;27.12;21.47
49529;BME280;35423;37.320;-121.762;2022-09-21T04:01:54;99688.00;;;27.69;21.61
49529;BME280;35423;37.320;-121.762;2022-09-21T04:04:19;99690.20;;;27.34;21.75
49529;BME280;35423;37.320;-121.762;2022-09-21T04:06:45;99694.88;;;27.12;21.83
49529;BME280;35423;37.320;-121.762;2022-09-21T04:09:11;99694.22;;;26.98;21.87
49529;BME280;35423;37.320;-121.762;2022-09-21T04:11:39;99697.64;;;26.85;22.21
49529;BME280;35423;37.320;-121.762;2022-09-21T04:14:11;99704.01;;;27.33;21.95
49529;BME280;35423;37.320;-121.762;2022-09-21T04:16:35;99704.12;;;26.94;21.97
49529;BME280;35423;37.320;-121.762;2022-09-21T04:19:02;99697.54;;;26.92;22.12
49529;BME280;35423;37.320;-121.762;2022-09-21T04:21:30;99698.16;;;26.58;22.15
49529;BME280;35423;37.320;-121.762;2022-09-21T04:23:59;99700.82;;;26.77;22.19
49529;BME280;35423;37.320;-121.762;2022-09-21T04:26:27;99699.35;;;26.57;22.22
49529;BME280;35423;37.320;-121.762;2022-09-21T04:28:50;99698.95;;;26.89;22.31
49529;BME280;35423;37.320;-121.762;2022-09-21T04:31:15;99700.26;;;25.72;22.48
49529;BME280;35423;37.320;-121.762;2022-09-21T04:33:42;99703.07;;;26.26;22.54
49529;BME280;35423;37.320;-121.762;2022-09-21T04:36:11;99707.92;;;26.17;22.51
49529;BME280;35423;37.320;-121.762;2022-09-21T04:38:38;99707.81;;;26.41;22.56
49529;BME280;35423;37.320;-121.762;2022-09-21T04:41:07;99708.82;;;25.91;22.69
49529;BME280;35423;37.320;-121.762;2022-09-21T04:43:32;99709.63;;;26.23;22.82
49529;BME280;35423;37.320;-121.762;2022-09-21T04:46:06;99710.55;;;26.31;22.99
49529;BME280;35423;37.320;-121.762;2022-09-21T04:48:30;99714.02;;;25.74;23.07
49529;BME280;35423;37.320;-121.762;2022-09-21T04:51:06;99712.87;;;26.17;23.15
49529;BME280;35423;37.320;-121.762;2022-09-21T04:53:31;99714.00;;;26.17;23.15
49529;BME280;35423;37.320;-121.762;2022-09-21T04:56:14;99712.10;;;26.20;23.04
49529;BME280;35423;37.320;-121.762;2022-09-21T04:58:36;99710.58;;;26.12;23.11
49529;BME280;35423;37.320;-121.762;2022-09-21T05:01:03;99709.52;;;26.42;22.80
49529;BME280;35423;37.320;-121.762;2022-09-21T05:03:29;99705.98;;;26.19;23.06
49529;BME280;35423;37.320;-121.762;2022-09-21T05:06:00;99703.12;;;26.05;23.19
49529;BME280;35423;37.320;-121.762;2022-09-21T05:08:26;99698.50;;;25.71;23.20
49529;BME280;35423;37.320;-121.762;2022-09-21T05:10:52;99696.11;;;26.21;23.16
49529;BME280;35423;37.320;-121.762;2022-09-21T05:13:25;99695.27;;;26.08;23.12
49529;BME280;35423;37.320;-121.762;2022-09-21T05:16:02;99691.68;;;26.30;23.14
49529;BME280;35423;37.320;-121.762;2022-09-21T05:18:27;99689.01;;;25.98;23.25
49529;BME280;35423;37.320;-121.762;2022-09-21T05:20:59;99686.06;;;26.13;23.17
49529;BME280;35423;37.320;-121.762;2022-09-21T05:23:19;99689.95;;;25.42;23.21
49529;BME280;35423;37.320;-121.762;2022-09-21T05:25:44;99695.87;;;26.09;23.24
49529;BME280;35423;37.320;-121.762;2022-09-21T05:28:12;99698.05;;;25.54;23.36
49529;BME280;35423;37.320;-121.762;2022-09-21T05:30:36;99699.04;;;26.00;23.46
49529;BME280;35423;37.320;-121.762;2022-09-21T05:33:03;99697.04;;;26.04;23.45
49529;BME280;35423;37.320;-121.762;2022-09-21T05:35:40;99697.48;;;25.89;23.62
49529;BME280;35423;37.320;-121.762;2022-09-21T05:38:18;99699.68;;;25.76;23.80
49529;BME280;35423;37.320;-121.762;2022-09-21T05:40:45;99699.17;;;25.65;23.87
49529;BME280;35423;37.320;-121.762;2022-09-21T05:43:13;99696.24;;;25.06;24.02
49529;BME280;35423;37.320;-121.762;2022-09-21T05:45:41;99693.81;;;25.68;24.18
49529;BME280;35423;37.320;-121.762;2022-09-21T05:48:12;99695.19;;;25.90;24.07
49529;BME280;35423;37.320;-121.762;2022-09-21T05:50:39;99694.41;;;25.53;24.18
49529;BME280;35423;37.320;-121.762;2022-09-21T05:53:03;99692.55;;;25.76;24.19
49529;BME280;35423;37.320;-121.762;2022-09-21T05:55:30;99691.20;;;25.25;24.32
49529;BME280;35423;37.320;-121.762;2022-09-21T05:58:03;99689.51;;;25.40;24.34
49529;BME280;35423;37.320;-121.762;2022-09-21T06:00:26;99686.23;;;25.25;24.49
49529;BME280;35423;37.320;-121.762;2022-09-21T06:02:58;99686.19;;;25.32;24.47
49529;BME280;35423;37.320;-121.762;2022-09-21T06:05:13;99685.42;;;24.70;24.35
49529;BME280;35423;37.320;-121.762;2022-09-21T06:07:39;99684.05;;;25.12;24.44
49529;BME280;35423;37.320;-121.762;2022-09-21T06:10:09;99682.34;;;25.02;24.52
49529;BME280;35423;37.320;-121.762;2022-09-21T06:12:33;99686.69;;;25.24;24.52
49529;BME280;35423;37.320;-121.762;2022-09-21T06:15:00;99685.85;;;25.17;24.51
49529;BME280;35423;37.320;-121.762;2022-09-21T06:17:25;99691.48;;;24.95;24.69
49529;BME280;35423;37.320;-121.762;2022-09-21T06:19:51;99687.86;;;25.10;24.80
49529;BME280;35423;37.320;-121.762;2022-09-21T06:22:16;99690.73;;;24.70;24.92
49529;BME280;35423;37.320;-121.762;2022-09-21T06:24:47;99691.72;;;24.87;25.07
49529;BME280;35423;37.320;-121.762;2022-09-21T06:27:18;99696.33;;;24.54;25.19
49529;BME280;35423;37.320;-121.762;2022-09-21T06:29:46;99699.26;;;24.86;25.18
49529;BME280;35423;37.320;-121.762;2022-09-21T06:32:13;99697.10;;;24.16;25.10
49529;BME280;35423;37.320;-121.762;2022-09-21T06:34:39;99695.00;;;24.92;25.17
49529;BME280;35423;37.320;-121.762;2022-09-21T06:37:11;99694.45;;;24.86;25.17
49529;BME280;35423;37.320;-121.762;2022-09-21T06:39:38;99696.16;;;24.77;25.28
49529;BME280;35423;37.320;-121.762;2022-09-21T06:42:08;99697.94;;;24.05;25.24
49529;BME280;35423;37.320;-121.762;2022-09-21T06:44:38;99698.73;;;24.97;24.99
49529;BME280;35423;37.320;-121.762;2022-09-21T06:47:05;99696.93;;;25.39;25.05
49529;BME280;35423;37.320;-121.762;2022-09-21T06:49:30;99694.32;;;24.93;25.02
49529;BME280;35423;37.320;-121.762;2022-09-21T06:51:57;99695.92;;;24.97;24.91
49529;BME280;35423;37.320;-121.762;2022-09-21T06:54:26;99694.92;;;24.89;24.97
49529;BME280;35423;37.320;-121.762;2022-09-21T06:56:54;99690.86;;;25.34;24.87
49529;BME280;35423;37.320;-121.762;2022-09-21T06:59:21;99688.09;;;24.45;25.05
49529;BME280;35423;37.320;-121.762;2022-09-21T07:01:45;99685.33;;;24.96;25.03
49529;BME280;35423;37.320;-121.762;2022-09-21T07:04:10;99684.41;;;24.84;25.12
49529;BME280;35423;37.320;-121.762;2022-09-21T07:06:36;99685.74;;;24.87;25.27
49529;BME280;35423;37.320;-121.762;2022-09-21T07:09:03;99687.47;;;24.38;25.36
49529;BME280;35423;37.320;-121.762;2022-09-21T07:11:32;99689.67;;;24.59;25.44
49529;BME280;35423;37.320;-121.762;2022-09-21T07:13:57;99687.87;;;24.57;25.40
49529;BME280;35423;37.320;-121.762;2022-09-21T07:16:24;99685.91;;;24.52;25.42
49529;BME280;35423;37.320;-121.762;2022-09-21T07:18:54;99686.38;;;24.58;25.58
49529;BME280;35423;37.320;-121.762;2022-09-21T07:21:23;99684.39;;;24.03;25.75
49529;BME280;35423;37.320;-121.762;2022-09-21T07:23:50;99685.96;;;24.63;25.57
49529;BME280;35423;37.320;-121.762;2022-09-21T07:26:23;99683.88;;;24.18;25.59
49529;BME280;35423;37.320;-121.762;2022-09-21T07:28:50;99683.55;;;24.56;25.74
49529;BME280;35423;37.320;-121.762;2022-09-21T07:31:18;99680.57;;;24.14;25.68
49529;BME280;35423;37.320;-121.762;2022-09-21T07:33:45;99677.98;;;24.30;25.72
49529;BME280;35423;37.320;-121.762;2022-09-21T07:36:10;99673.77;;;23.72;25.75
49529;BME280;35423;37.320;-121.762;2022-09-21T07:38:35;99674.36;;;23.93;25.80
49529;BME280;35423;37.320;-121.762;2022-09-21T07:41:04;99676.13;;;24.24;25.95
49529;BME280;35423;37.320;-121.762;2022-09-21T07:43:29;99678.04;;;23.87;26.18
49529;BME280;35423;37.320;-121.762;2022-09-21T07:46:11;99675.93;;;23.61;26.23
49529;BME280;35423;37.320;-121.762;2022-09-21T07:48:34;99676.52;;;24.00;26.28
49529;BME280;35423;37.320;-121.762;2022-09-21T07:51:05;99680.28;;;24.04;26.28
49529;BME280;35423;37.320;-121.762;2022-09-21T07:53:29;99686.68;;;24.11;26.22
49529;BME280;35423;37.320;-121.762;2022-09-21T07:56:00;99693.63;;;24.18;26.17
49529;BME280;35423;37.320;-121.762;2022-09-21T07:58:20;99700.14;;;24.16;26.04
49529;BME280;35423;37.320;-121.762;2022-09-21T08:00:46;99701.80;;;24.44;26.00
49529;BME280;35423;37.320;-121.762;2022-09-21T08:03:12;99703.60;;;23.66;26.06
49529;BME280;35423;37.320;-121.762;2022-09-21T08:05:38;99704.93;;;24.39;26.09
49529;BME280;35423;37.320;-121.762;2022-09-21T08:08:07;99705.44;;;24.06;26.06
49529;BME280;35423;37.320;-121.762;2022-09-21T08:10:33;99701.22;;;24.21;26.12
49529;BME280;35423;37.320;-121.762;2022-09-21T08:12:59;99701.44;;;24.61;26.20
49529;BME280;35423;37.320;-121.762;2022-09-21T08:15:26;99699.87;;;24.04;26.48
49529;BME280;35423;37.320;-121.762;2022-09-21T08:17:53;99698.85;;;24.39;26.72
49529;BME280;35423;37.320;-121.762;2022-09-21T08:20:18;99703.43;;;23.54;26.85
49529;BME280;35423;37.320;-121.762;2022-09-21T08:22:45;99705.23;;;23.85;27.01
49529;BME280;35423;37.320;-121.762;2022-09-21T08:25:13;99708.65;;;23.34;27.09
49529;BME280;35423;37.320;-121.762;2022-09-21T08:27:40;99711.61;;;23.72;27.21
49529;BME280;35423;37.320;-121.762;2022-09-21T08:30:08;99715.18;;;23.69;27.29
49529;BME280;35423;37.320;-121.762;2022-09-21T08:32:40;99720.62;;;23.91;27.34
49529;BME280;35423;37.320;-121.762;2022-09-21T08:35:08;99722.39;;;23.16;27.48
49529;BME280;35423;37.320;-121.762;2022-09-21T08:37:42;99722.88;;;23.92;27.38
49529;BME280;35423;37.320;-121.762;2022-09-21T08:40:10;99723.10;;;23.28;27.35
49529;BME280;35423;37.320;-121.762;2022-09-21T08:42:44;99721.48;;;23.83;27.47
49529;BME280;35423;37.320;-121.762;2022-09-21T08:45:12;99721.46;;;24.42;27.46
49529;BME280;35423;37.320;-121.762;2022-09-21T08:47:39;99722.32;;;23.88;27.58
49529;BME280;35423;37.320;-121.762;2022-09-21T08:50:08;99721.40;;;23.84;27.60
49529;BME280;35423;37.320;-121.762;2022-09-21T08:52:35;99721.51;;;23.43;27.64
49529;BME280;35423;37.320;-121.762;2022-09-21T08:55:08;99722.69;;;23.63;27.68
49529;BME280;35423;37.320;-121.762;2022-09-21T08:57:29;99720.03;;;23.90;27.58
49529;BME280;35423;37.320;-121.762;2022-09-21T08:59:53;99719.21;;;23.79;27.74
49529;BME280;35423;37.320;-121.762;2022-09-21T09:04:53;99724.46;;;23.78;27.71
49529;BME280;35423;37.320;-121.762;2022-09-21T09:07:24;99724.51;;;23.51;27.51
49529;BME280;35423;37.320;-121.762;2022-09-21T09:09:51;99720.02;;;23.88;27.74
49529;BME280;35423;37.320;-121.762;2022-09-21T09:12:17;99721.54;;;23.22;27.61
49529;BME280;35423;37.320;-121.762;2022-09-21T09:14:44;99722.95;;;23.58;27.66
49529;BME280;35423;37.320;-121.762;2022-09-21T09:19:36;99727.69;;;23.50;27.79
49529;BME280;35423;37.320;-121.762;2022-09-21T09:22:09;99725.97;;;23.79;27.71
49529;BME280;35423;37.320;-121.762;2022-09-21T09:24:42;99721.41;;;23.86;27.65
49529;BME280;35423;37.320;-121.762;2022-09-21T09:27:11;99715.63;;;23.28;27.77
49529;BME280;35423;37.320;-121.762;2022-09-21T09:29:42;99713.96;;;23.50;27.88
49529;BME280;35423;37.320;-121.762;2022-09-21T09:32:05;99715.15;;;23.69;27.96
49529;BME280;35423;37.320;-121.762;2022-09-21T09:34:32;99715.47;;;23.32;28.09
49529;BME280;35423;37.320;-121.762;2022-09-21T09:37:09;99715.06;;;23.51;28.10
49529;BME280;35423;37.320;-121.762;2022-09-21T09:39:25;99713.94;;;23.14;28.27
49529;BME280;35423;37.320;-121.762;2022-09-21T09:42:05;99716.30;;;23.26;28.50
49529;BME280;35423;37.320;-121.762;2022-09-21T09:44:28;99715.97;;;22.61;28.76
49529;BME280;35423;37.320;-121.762;2022-09-21T09:46:51;99709.59;;;23.08;29.01
49529;BME280;35423;37.320;-121.762;2022-09-21T09:49:18;99703.29;;;22.48;29.06
49529;BME280;35423;37.320;-121.762;2022-09-21T09:51:37;99702.67;;;22.84;29.16
49529;BME280;35423;37.320;-121.762;2022-09-21T09:54:03;99700.87;;;22.79;29.24
49529;BME280;35423;37.320;-121.762;2022-09-21T09:56:34;99702.94;;;22.79;29.26
49529;BME280;35423;37.320;-121.762;2022-09-21T09:59:02;99698.97;;;22.84;29.28
49529;BME280;35423;37.320;-121.762;2022-09-21T10:04:06;99691.18;;;23.01;29.02
49529;BME280;35423;37.320;-121.762;2022-09-21T10:06:31;99691.12;;;22.76;28.96
49529;BME280;35423;37.320;-121.762;2022-09-21T10:08:52;99693.04;;;22.98;28.97
49529;BME280;35423;37.320;-121.762;2022-09-21T10:11:20;99697.62;;;22.72;29.04
49529;BME280;35423;37.320;-121.762;2022-09-21T10:13:52;99703.55;;;23.17;29.07
49529;BME280;35423;37.320;-121.762;2022-09-21T10:16:21;99703.37;;;22.85;29.16
49529;BME280;35423;37.320;-121.762;2022-09-21T10:18:46;99703.10;;;22.63;29.32
49529;BME280;35423;37.320;-121.762;2022-09-21T10:21:16;99704.39;;;22.25;29.27
49529;BME280;35423;37.320;-121.762;2022-09-21T10:23:38;99705.90;;;22.86;29.28
49529;BME280;35423;37.320;-121.762;2022-09-21T10:26:09;99706.82;;;22.79;29.28
49529;BME280;35423;37.320;-121.762;2022-09-21T10:28:32;99711.66;;;22.84;29.20
49529;BME280;35423;37.320;-121.762;2022-09-21T10:31:09;99715.86;;;23.09;29.13
49529;BME280;35423;37.320;-121.762;2022-09-21T10:33:26;99717.96;;;22.61;29.24
49529;BME280;35423;37.320;-121.762;2022-09-21T10:38:32;99722.42;;;21.65;29.21
49529;BME280;35423;37.320;-121.762;2022-09-21T10:40:57;99717.96;;;23.03;28.67
49529;BME280;35423;37.320;-121.762;2022-09-21T10:43:34;99716.56;;;22.89;28.82
49529;BME280;35423;37.320;-121.762;2022-09-21T10:45:56;99712.89;;;22.75;28.97
49529;BME280;35423;37.320;-121.762;2022-09-21T10:48:29;99710.07;;;22.76;28.92
49529;BME280;35423;37.320;-121.762;2022-09-21T10:50:55;99703.97;;;22.76;29.27
49529;BME280;35423;37.320;-121.762;2022-09-21T10:53:23;99703.30;;;22.29;29.43
49529;BME280;35423;37.320;-121.762;2022-09-21T10:55:53;99705.75;;;22.55;29.63
49529;BME280;35423;37.320;-121.762;2022-09-21T10:58:13;99707.54;;;21.84;29.88
49529;BME280;35423;37.320;-121.762;2022-09-21T11:00:42;99707.64;;;22.00;30.04
49529;BME280;35423;37.320;-121.762;2022-09-21T11:05:37;99709.80;;;21.99;30.07
49529;BME280;35423;37.320;-121.762;2022-09-21T11:08:05;99710.63;;;21.96;30.16
49529;BME280;35423;37.320;-121.762;2022-09-21T11:10:32;99711.84;;;21.84;30.05
49529;BME280;35423;37.320;-121.762;2022-09-21T11:13:01;99712.37;;;22.42;29.99
49529;BME280;35423;37.320;-121.762;2022-09-21T11:15:31;99709.81;;;21.94;30.02
49529;BME280;35423;37.320;-121.762;2022-09-21T11:17:52;99706.98;;;22.23;29.93
49529;BME280;35423;37.320;-121.762;2022-09-21T11:20:25;99711.14;;;21.88;29.84
49529;BME280;35423;37.320;-121.762;2022-09-21T11:22:51;99715.67;;;22.28;29.94
49529;BME280;35423;37.320;-121.762;2022-09-21T11:25:22;99715.02;;;21.27;30.06
49529;BME280;35423;37.320;-121.762;2022-09-21T11:27:43;99710.42;;;22.21;30.06
49529;BME280;35423;37.320;-121.762;2022-09-21T11:30:11;99711.08;;;21.89;30.19
49529;BME280;35423;37.320;-121.762;2022-09-21T11:32:53;99713.42;;;22.21;30.30
49529;BME280;35423;37.320;-121.762;2022-09-21T11:35:20;99718.53;;;21.40;30.45
49529;BME280;35423;37.320;-121.762;2022-09-21T11:40:22;99720.36;;;21.49;30.32
49529;BME280;35423;37.320;-121.762;2022-09-21T11:42:47;99716.84;;;21.98;30.42
49529;BME280;35423;37.320;-121.762;2022-09-21T11:45:09;99715.02;;;21.92;30.43
49529;BME280;35423;37.320;-121.762;2022-09-21T11:47:49;99717.05;;;21.84;30.46
49529;BME280;35423;37.320;-121.762;2022-09-21T11:52:39;99723.99;;;21.91;30.26
49529;BME280;35423;37.320;-121.762;2022-09-21T11:57:32;99726.57;;;21.98;30.11
49529;BME280;35423;37.320;-121.762;2022-09-21T12:00:06;99727.38;;;22.18;30.16
49529;BME280;35423;37.320;-121.762;2022-09-21T12:02:35;99728.51;;;21.95;30.18
49529;BME280;35423;37.320;-121.762;2022-09-21T12:04:50;99730.80;;;21.99;30.11
49529;BME280;35423;37.320;-121.762;2022-09-21T12:07:33;99734.01;;;22.27;30.08
49529;BME280;35423;37.320;-121.762;2022-09-21T12:09:56;99732.35;;;22.06;30.09
49529;BME280;35423;37.320;-121.762;2022-09-21T12:12:19;99730.57;;;21.40;30.11
49529;BME280;35423;37.320;-121.762;2022-09-21T12:14:45;99727.76;;;22.22;30.20
49529;BME280;35423;37.320;-121.762;2022-09-21T12:17:12;99726.64;;;21.42;30.29
49529;BME280;35423;37.320;-121.762;2022-09-21T12:19:43;99729.60;;;22.12;30.26
49529;BME280;35423;37.320;-121.762;2022-09-21T12:22:09;99733.36;;;22.20;30.20
49529;BME280;35423;37.320;-121.762;2022-09-21T12:24:38;99736.38;;;21.90;30.25
49529;BME280;35423;37.320;-121.762;2022-09-21T12:27:02;99736.85;;;22.17;30.24
49529;BME280;35423;37.320;-121.762;2022-09-21T12:29:29;99739.27;;;21.98;30.12
49529;BME280;35423;37.320;-121.762;2022-09-21T12:31:57;99738.29;;;22.21;30.03
49529;BME280;35423;37.320;-121.762;2022-09-21T12:34:23;99739.02;;;21.67;30.14
49529;BME280;35423;37.320;-121.762;2022-09-21T12:36:58;99741.40;;;22.03;30.29
49529;BME280;35423;37.320;-121.762;2022-09-21T12:39:19;99744.24;;;21.81;30.24
49529;BME280;35423;37.320;-121.762;2022-09-21T12:41:54;99749.04;;;21.76;30.24
49529;BME280;35423;37.320;-121.762;2022-09-21T12:44:21;99750.25;;;21.25;30.29
49529;BME280;35423;37.320;-121.762;2022-09-21T12:46:45;99749.42;;;21.98;30.25
49529;BME280;35423;37.320;-121.762;2022-09-21T12:49:14;99748.72;;;21.22;30.22
49529;BME280;35423;37.320;-121.762;2022-09-21T12:51:40;99747.70;;;21.70;30.08
49529;BME280;35423;37.320;-121.762;2022-09-21T12:54:07;99750.99;;;21.87;30.05